Culmore, United Kingdom
Current Conditions -  °F | °C
As of 5:20 AM on Sunday 21 Dec 2014 (Local Time) from EGAA Reporting Station
Overcast Overcast  
Wind Chill: 40°   Ceiling: 800
Heat Index: 46°   Visibility: 6mi
Dew Point: 45°   Wind: 15mph
Humidity: 93%   Direction: 220°SW
Pressure: 30.06"   Gusts: NA
Location:  55.05°N, 7.27°W
Report Text: EGAA 210520Z 22013KT 9999 OVC008 08/07 Q1018
Loading
Personal Weather Stations






























Interactive Weather Map New forecast layout! Learn more

10-Day Weather Forecast

Advertisements
Track Severe Weather on mobile